createdAt,value
2023-03-19T00:01:23.995Z,2.50
2023-03-19T00:06:26.617Z,2.47
2023-03-19T00:11:28.875Z,2.00
2023-03-19T00:16:31.268Z,2.20
2023-03-19T00:21:33.578Z,2.50
2023-03-19T00:26:37.858Z,2.50
2023-03-19T00:31:40.987Z,1.70
2023-03-19T00:36:43.155Z,1.60
2023-03-19T00:41:50.702Z,1.87
2023-03-19T00:47:00.939Z,1.50
2023-03-19T00:52:03.147Z,1.90
2023-03-19T00:57:05.931Z,1.50
2023-03-19T01:02:09.207Z,1.53
2023-03-19T01:07:11.647Z,1.47
2023-03-19T01:12:13.876Z,1.10
2023-03-19T01:17:16.279Z,1.27
2023-03-19T01:22:18.646Z,1.40
2023-03-19T01:27:27.333Z,1.70
2023-03-19T01:32:29.825Z,1.10
2023-03-19T01:38:04.630Z,1.47
2023-03-19T01:43:22.562Z,1.23
2023-03-19T01:48:50.620Z,1.80
2023-03-19T01:53:59.306Z,1.87
2023-03-19T01:59:36.698Z,1.47
2023-03-19T02:05:02.155Z,1.87
2023-03-19T02:10:09.247Z,1.60
2023-03-19T02:15:12.954Z,1.73
2023-03-19T02:20:40.922Z,1.20
2023-03-19T02:25:46.627Z,1.43
2023-03-19T02:30:49.702Z,1.30
2023-03-19T02:35:53.516Z,1.50
2023-03-19T02:41:00.539Z,1.70
2023-03-19T02:46:07.637Z,1.43
2023-03-19T02:51:09.995Z,1.40
2023-03-19T02:56:12.480Z,1.90
2023-03-19T03:01:16.042Z,1.90
2023-03-19T03:06:18.407Z,1.60
2023-03-19T03:11:21.845Z,2.00
2023-03-19T03:16:24.514Z,2.27
2023-03-19T03:21:27.333Z,2.90
2023-03-19T03:26:29.625Z,1.47
2023-03-19T03:31:32.274Z,1.53
2023-03-19T03:36:34.460Z,1.47
2023-03-19T03:41:36.779Z,1.67
2023-03-19T03:46:39.114Z,3.13
2023-03-19T03:51:48.146Z,2.67
2023-03-19T03:56:56.144Z,2.37
2023-03-19T04:01:58.814Z,2.67
2023-03-19T04:07:01.285Z,2.10
2023-03-19T04:12:23.883Z,1.63
2023-03-19T04:17:26.492Z,2.93
2023-03-19T04:22:29.184Z,1.70
2023-03-19T04:27:31.462Z,2.60
2023-03-19T04:32:35.823Z,1.60
2023-03-19T04:37:38.663Z,1.90
2023-03-19T04:42:41.760Z,2.27
2023-03-19T04:47:50.154Z,2.07
2023-03-19T04:52:52.453Z,2.10
2023-03-19T04:57:55.177Z,1.90
2023-03-19T05:03:02.673Z,2.03
2023-03-19T05:08:07.747Z,2.60
2023-03-19T05:13:11.094Z,2.30
2023-03-19T05:18:18.038Z,3.07
2023-03-19T05:23:21.545Z,3.30
2023-03-19T05:28:40.366Z,3.23
2023-03-19T05:33:42.793Z,3.03
2023-03-19T05:38:45.487Z,2.80
2023-03-19T05:43:54.676Z,2.00
2023-03-19T05:49:16.897Z,1.40
2023-03-19T05:54:19.758Z,1.40
2023-03-19T05:59:38.518Z,2.00
2023-03-19T06:04:56.939Z,1.83
2023-03-19T06:10:06.813Z,1.87
2023-03-19T06:15:09.820Z,2.57
2023-03-19T06:20:21.088Z,2.90
2023-03-19T06:25:24.599Z,1.80
2023-03-19T06:30:28.104Z,1.80
2023-03-19T06:35:33.378Z,1.60
2023-03-19T06:40:36.484Z,1.77
2023-03-19T06:45:40.674Z,1.60
2023-03-19T06:50:43.205Z,1.60
2023-03-19T06:55:47.336Z,1.70
2023-03-19T07:00:49.886Z,2.00
2023-03-19T07:05:52.233Z,1.60
2023-03-19T07:10:54.482Z,2.10
2023-03-19T07:15:56.681Z,1.50
2023-03-19T07:21:06.132Z,1.70
2023-03-19T07:26:32.902Z,1.60
2023-03-19T07:31:35.363Z,1.80
2023-03-19T07:36:37.798Z,1.70
2023-03-19T07:41:40.168Z,1.70
2023-03-19T07:46:45.212Z,1.90
2023-03-19T07:51:47.696Z,1.97
2023-03-19T07:56:50.316Z,1.57
2023-03-19T08:01:52.550Z,2.30
2023-03-19T08:06:54.805Z,2.03
2023-03-19T08:11:57.132Z,1.60
2023-03-19T08:16:59.439Z,2.00
2023-03-19T08:22:01.732Z,1.90
2023-03-19T08:27:04.141Z,2.53
2023-03-19T08:32:06.767Z,2.43
2023-03-19T08:37:09.154Z,2.67
2023-03-19T08:42:11.895Z,2.37
2023-03-19T08:47:14.433Z,2.60
2023-03-19T08:52:18.018Z,3.50
2023-03-19T08:57:20.677Z,2.23
2023-03-19T09:02:53.594Z,3.67
2023-03-19T09:08:07.388Z,2.30
2023-03-19T09:13:10.802Z,2.50
2023-03-19T09:18:13.115Z,2.50
2023-03-19T09:23:16.488Z,2.00
2023-03-19T09:28:18.828Z,2.33
2023-03-19T09:33:22.251Z,2.17
2023-03-19T09:38:24.709Z,2.03
2023-03-19T09:43:41.150Z,2.37
2023-03-19T09:48:54.916Z,2.13
2023-03-19T09:54:01.136Z,2.20
2023-03-19T09:59:03.585Z,2.40
2023-03-19T10:10:37.896Z,2.97
2023-03-19T10:15:41.350Z,2.33
2023-03-19T10:20:53.664Z,1.80
2023-03-19T10:25:58.535Z,1.80
2023-03-19T10:31:19.496Z,2.03
2023-03-19T10:36:27.115Z,2.00
2023-03-19T10:42:05.026Z,1.90
2023-03-19T10:47:12.390Z,2.07
2023-03-19T10:52:22.418Z,2.20
2023-03-19T10:57:35.458Z,2.40
2023-03-19T11:02:38.146Z,2.37
2023-03-19T11:07:51.522Z,2.87
2023-03-19T11:12:58.808Z,2.77
2023-03-19T11:18:08.616Z,1.90
2023-03-19T11:23:18.218Z,2.60
2023-03-19T11:28:26.572Z,2.35
2023-03-19T11:34:07.040Z,2.40
2023-03-19T11:39:22.861Z,2.57
2023-03-19T11:44:39.647Z,2.27
2023-03-19T11:50:18.829Z,2.30
2023-03-19T11:56:06.303Z,2.50
2023-03-19T12:01:50.710Z,2.00
2023-03-19T12:07:21.864Z,2.27
2023-03-19T12:13:06.350Z,2.17
2023-03-19T12:18:33.800Z,2.53
2023-03-19T12:24:07.146Z,2.97
2023-03-19T12:29:23.821Z,2.10
2023-03-19T12:34:30.847Z,3.17
2023-03-19T12:39:35.952Z,2.37
2023-03-19T12:44:42.624Z,2.10
2023-03-19T12:50:00.084Z,2.23
2023-03-19T12:55:05.364Z,2.53
2023-03-19T13:00:11.197Z,2.37
2023-03-19T13:05:43.750Z,2.87
2023-03-19T13:11:06.620Z,3.23
2023-03-19T13:16:33.204Z,2.30
2023-03-19T13:21:37.943Z,2.60
2023-03-19T13:26:40.350Z,2.30
2023-03-19T13:31:43.669Z,2.57
2023-03-19T13:36:48.996Z,2.13
2023-03-19T13:41:53.721Z,2.30
2023-03-19T13:46:56.015Z,3.17
2023-03-19T13:52:23.925Z,3.43
2023-03-19T13:57:36.001Z,2.70
2023-03-19T14:02:38.585Z,3.10
2023-03-19T14:07:42.675Z,2.60
2023-03-19T14:12:50.059Z,2.80
2023-03-19T14:17:59.802Z,2.87
2023-03-19T14:28:19.143Z,2.83
2023-03-19T14:33:35.070Z,2.87
2023-03-19T14:39:05.360Z,2.43
2023-03-19T14:44:23.095Z,2.63
2023-03-19T14:49:49.813Z,2.40
2023-03-19T14:54:59.188Z,3.10
2023-03-19T15:00:02.277Z,4.43
2023-03-19T15:05:09.374Z,3.33
2023-03-19T15:10:19.861Z,5.30
2023-03-19T15:15:35.393Z,9.23
2023-03-19T15:20:40.190Z,8.30
2023-03-19T15:25:47.343Z,6.93
2023-03-19T15:31:13.342Z,4.87
2023-03-19T15:36:30.374Z,4.67
2023-03-19T15:41:35.274Z,4.13
2023-03-19T15:46:39.317Z,2.83
2023-03-19T15:51:42.305Z,3.70
2023-03-19T15:56:44.590Z,2.70
2023-03-19T16:01:47.002Z,3.10
2023-03-19T16:06:50.105Z,3.80
2023-03-19T16:11:53.325Z,3.53
2023-03-19T16:17:13.180Z,3.37
2023-03-19T16:22:17.778Z,3.35
2023-03-19T16:27:22.817Z,4.77
2023-03-19T16:32:30.015Z,3.83
2023-03-19T16:37:35.268Z,3.33
2023-03-19T16:42:51.073Z,3.73
2023-03-19T16:48:03.653Z,3.17
2023-03-19T16:53:24.196Z,3.50
2023-03-19T16:58:43.002Z,3.40
2023-03-19T17:03:46.031Z,4.27
2023-03-19T17:08:48.515Z,3.77
2023-03-19T17:13:54.079Z,4.20
2023-03-19T17:18:56.897Z,4.00
2023-03-19T17:24:01.019Z,4.50
2023-03-19T17:29:03.490Z,4.00
2023-03-19T17:34:11.727Z,4.20
2023-03-19T17:39:14.061Z,4.20
2023-03-19T17:44:16.518Z,4.43
2023-03-19T17:49:24.256Z,4.97
2023-03-19T17:54:28.183Z,5.13
2023-03-19T17:59:30.467Z,5.20
2023-03-19T18:04:32.709Z,4.37
2023-03-19T18:09:35.134Z,4.60
2023-03-19T18:14:37.505Z,3.87
2023-03-19T18:19:39.941Z,3.97
2023-03-19T18:24:43.149Z,4.17
2023-03-19T18:29:47.797Z,4.23
2023-03-19T18:34:53.029Z,3.43
2023-03-19T18:39:58.148Z,5.97
2023-03-19T18:45:01.615Z,4.47
2023-03-19T18:50:27.457Z,3.97
2023-03-19T18:55:30.656Z,4.97
2023-03-19T19:00:35.394Z,4.80
2023-03-19T19:05:37.699Z,5.63
2023-03-19T19:10:40.605Z,6.03
2023-03-19T19:15:42.902Z,13.53
2023-03-19T19:20:47.278Z,11.77
2023-03-19T19:25:52.329Z,9.93
2023-03-19T19:30:56.315Z,6.57
2023-03-19T19:35:58.689Z,6.97
2023-03-19T19:41:01.177Z,5.10
2023-03-19T19:46:03.463Z,5.97
2023-03-19T19:51:08.291Z,5.10
2023-03-19T19:56:21.983Z,4.63
2023-03-19T20:01:25.790Z,5.00
2023-03-19T20:06:28.167Z,4.33
2023-03-19T20:11:32.898Z,5.43
2023-03-19T20:16:35.133Z,5.23
2023-03-19T20:21:37.314Z,8.23
2023-03-19T20:26:39.491Z,9.57
2023-03-19T20:31:41.671Z,6.17
2023-03-19T20:36:43.971Z,6.70
2023-03-19T20:41:46.294Z,5.60
2023-03-19T20:46:51.025Z,4.37
2023-03-19T20:51:53.221Z,5.27
2023-03-19T20:56:55.533Z,4.87
2023-03-19T21:01:57.937Z,4.03
2023-03-19T21:07:00.846Z,5.03
2023-03-19T21:12:03.196Z,5.67
2023-03-19T21:17:07.326Z,4.67
2023-03-19T21:22:16.054Z,5.27
2023-03-19T21:27:24.159Z,5.07
2023-03-19T21:32:26.360Z,5.10
2023-03-19T21:37:28.519Z,4.80
2023-03-19T21:42:31.984Z,4.30
2023-03-19T21:47:34.076Z,5.20
2023-03-19T21:52:54.054Z,5.83
2023-03-19T21:57:59.015Z,4.80
2023-03-19T22:03:01.875Z,4.53
2023-03-19T22:08:04.118Z,5.20
2023-03-19T22:13:06.616Z,3.77
2023-03-19T22:18:14.477Z,4.07
2023-03-19T22:23:17.271Z,4.10
2023-03-19T22:28:32.685Z,4.70
2023-03-19T22:33:34.944Z,4.97
2023-03-19T22:38:37.250Z,3.93
2023-03-19T22:43:39.357Z,5.13
2023-03-19T22:48:42.865Z,4.93
2023-03-19T22:53:45.731Z,3.57
2023-03-19T22:58:48.948Z,4.83
2023-03-19T23:03:51.960Z,3.47
2023-03-19T23:08:54.202Z,3.93
2023-03-19T23:13:56.865Z,4.20
2023-03-19T23:18:59.059Z,3.87
2023-03-19T23:24:01.525Z,3.80
2023-03-19T23:29:06.112Z,3.40
2023-03-19T23:34:11.406Z,4.43
2023-03-19T23:39:14.293Z,5.03
2023-03-19T23:44:17.900Z,3.67
2023-03-19T23:49:29.282Z,3.97
2023-03-19T23:54:34.631Z,3.97
2023-03-19T23:59:38.958Z,4.57
